Sour Lake, Texas
Current Conditions -  °F | °C
As of 7:55 AM on Friday 24 Oct 2014 (Local Time) from KBMT Reporting Station
Clear Clear  
Wind Chill: 50°   Ceiling: Unl
Heat Index: 50°   Visibility: 10mi
Dew Point: 50°   Wind: 0mph
Humidity: 99%   Direction: NA
Pressure: 30.15"   Gusts: NA
Location:  30.14°N, 94.41°W
Report Text: KBMT 241255Z AUTO 00000KT 10SM CLR 10/10 A3015 RMK AO2 T01010100
Loading
Personal Weather Stations






























Interactive Weather Map
Tropical Storm Tracking
New forecast layout! Learn more

10-Day Weather Forecast

Advertisements
Track Severe Weather on mobile